createdAt,value
2018-02-17T01:00:21.514Z,37.00
2018-02-17T01:10:10.333Z,37.95
2018-02-17T01:12:38.179Z,38.67
2018-02-17T02:21:21.501Z,34.07
2018-02-17T02:23:49.293Z,32.80
2018-02-17T02:26:17.084Z,33.53
2018-02-17T02:46:55.776Z,36.13
2018-02-17T02:49:23.602Z,36.27
2018-02-17T02:51:53.487Z,37.07
2018-02-17T02:54:21.285Z,34.40
2018-02-17T02:56:49.081Z,35.70
2018-02-17T02:59:31.493Z,30.93
2018-02-17T03:01:59.301Z,31.07
2018-02-17T03:04:32.122Z,28.07
2018-02-17T03:06:59.945Z,29.70
2018-02-17T03:09:31.630Z,27.10
2018-02-17T03:11:59.489Z,24.50
2018-02-17T03:14:27.294Z,23.87
2018-02-17T03:16:55.089Z,23.93
2018-02-17T03:19:27.718Z,23.53
2018-02-17T03:21:55.544Z,22.37
2018-02-17T03:24:23.461Z,21.27
2018-02-17T03:26:51.265Z,22.10
2018-02-17T03:29:19.045Z,20.70
2018-02-17T03:31:46.838Z,20.67
2018-02-17T03:34:14.621Z,21.57
2018-02-17T03:36:42.416Z,21.20
2018-02-17T03:39:10.287Z,18.70
2018-02-17T03:41:38.101Z,19.53
2018-02-17T03:44:05.908Z,19.00
2018-02-17T03:46:33.685Z,20.73
2018-02-17T03:49:01.484Z,19.80
2018-02-17T03:51:29.312Z,20.20
2018-02-17T03:53:58.038Z,19.20
2018-02-17T03:56:25.868Z,19.60
2018-02-17T03:58:53.650Z,17.43
2018-02-17T04:01:21.439Z,18.63
2018-02-17T04:03:49.257Z,16.93
2018-02-17T04:06:17.186Z,18.77
2018-02-17T04:08:45.944Z,17.90
2018-02-17T04:11:13.745Z,17.80
2018-02-17T04:13:42.354Z,18.13
2018-02-17T04:16:10.250Z,16.53
2018-02-17T05:03:58.782Z,14.00
2018-02-17T05:13:03.240Z,14.07
2018-02-17T05:29:58.928Z,13.17
2018-02-17T05:32:41.615Z,13.40
2018-02-17T05:35:19.409Z,13.50
2018-02-17T05:57:51.363Z,11.47
2018-02-17T06:00:19.429Z,11.83
2018-02-17T06:02:47.377Z,11.43
2018-02-17T06:05:15.218Z,12.37
2018-02-17T06:07:43.310Z,9.73
2018-02-17T06:10:11.118Z,9.90
2018-02-17T06:12:38.902Z,11.40
2018-02-17T06:15:07.441Z,9.83
2018-02-17T06:17:35.245Z,11.00
2018-02-17T06:20:03.031Z,10.20
2018-02-17T06:22:30.879Z,11.77
2018-02-17T06:24:58.660Z,9.77
2018-02-17T06:27:26.449Z,9.60
2018-02-17T06:29:54.244Z,10.80
2018-02-17T06:32:22.039Z,11.83
2018-02-17T06:34:49.853Z,10.87
2018-02-17T06:37:18.480Z,11.17
2018-02-17T06:39:46.266Z,10.87
2018-02-17T06:42:14.067Z,10.87
2018-02-17T06:44:42.772Z,12.50
2018-02-17T06:47:10.562Z,11.30
2018-02-17T06:49:38.341Z,12.50
2018-02-17T06:52:06.906Z,12.63
2018-02-17T06:54:34.694Z,12.27
2018-02-17T06:57:02.491Z,12.37
2018-02-17T06:59:30.349Z,12.17
2018-02-17T07:01:58.293Z,11.20
2018-02-17T07:04:26.859Z,12.17
2018-02-17T07:06:55.458Z,12.63
2018-02-17T07:09:23.275Z,11.63
2018-02-17T07:11:51.059Z,11.83
2018-02-17T07:14:19.615Z,11.17
2018-02-17T07:16:49.231Z,11.40
2018-02-17T07:19:17.891Z,11.07
2018-02-17T07:21:45.742Z,11.50
2018-02-17T07:24:13.671Z,17.70
2018-02-17T07:26:41.536Z,16.67
2018-02-17T07:29:10.850Z,18.05
2018-02-17T07:31:38.665Z,35.00
2018-02-17T07:34:07.537Z,18.67
2018-02-17T07:36:35.390Z,12.37
2018-02-17T07:39:03.305Z,10.70
2018-02-17T07:41:31.947Z,12.00
2018-02-17T07:43:59.730Z,10.50
2018-02-17T07:46:28.366Z,10.23
2018-02-17T07:48:59.514Z,11.10
2018-02-17T07:51:27.787Z,9.23
2018-02-17T07:53:55.851Z,10.13
2018-02-17T07:56:25.355Z,10.37
2018-02-17T07:58:56.287Z,12.07
2018-02-17T08:01:24.879Z,16.97
2018-02-17T08:03:54.991Z,15.30
2018-02-17T08:06:24.862Z,14.70
2018-02-17T08:17:11.642Z,12.48
2018-02-17T10:09:11.893Z,16.37
2018-02-17T10:11:39.763Z,16.07
2018-02-17T10:14:07.546Z,16.57
2018-02-17T10:16:35.342Z,16.33
2018-02-17T10:19:18.663Z,14.50
2018-02-17T10:22:17.171Z,15.50
2018-02-17T10:24:45.272Z,14.43
2018-02-17T10:27:13.079Z,16.63
2018-02-17T10:29:40.925Z,15.70
2018-02-17T10:32:08.729Z,15.20
2018-02-17T10:34:36.519Z,15.67
2018-02-17T10:37:04.294Z,15.97
2018-02-17T10:39:32.888Z,14.83
2018-02-17T10:42:01.439Z,15.10
2018-02-17T10:44:29.240Z,15.40
2018-02-17T10:46:57.929Z,15.87
2018-02-17T10:49:26.494Z,14.73
2018-02-17T10:51:54.274Z,15.80
2018-02-17T10:54:22.096Z,15.97
2018-02-17T10:56:49.898Z,16.17
2018-02-17T10:59:17.674Z,15.27
2018-02-17T11:01:45.445Z,15.70
2018-02-17T11:04:13.234Z,14.93
2018-02-17T11:06:41.032Z,17.57
2018-02-17T11:09:08.827Z,16.43
2018-02-17T11:11:36.625Z,16.40
2018-02-17T11:14:04.449Z,15.87
2018-02-17T11:16:32.999Z,16.40
2018-02-17T11:19:00.857Z,16.50
2018-02-17T11:21:28.674Z,17.80
2018-02-17T11:23:56.470Z,16.43
2018-02-17T11:26:24.250Z,18.70
2018-02-17T11:28:52.025Z,18.07
2018-02-17T11:31:19.814Z,18.92
2018-02-17T11:33:48.392Z,22.20
2018-02-17T11:36:16.177Z,19.70
2018-02-17T11:38:44.733Z,20.00
2018-02-17T11:41:12.557Z,22.47
2018-02-17T11:43:40.371Z,21.57
2018-02-17T11:46:08.181Z,22.60
2018-02-17T11:48:36.026Z,24.60
2018-02-17T11:51:03.880Z,23.40
2018-02-17T11:53:31.811Z,23.27
2018-02-17T11:55:59.685Z,23.20
2018-02-17T11:58:27.483Z,22.80
2018-02-17T12:00:56.037Z,23.40
2018-02-17T12:03:23.884Z,22.47
2018-02-17T12:05:51.686Z,22.77
2018-02-17T12:08:20.250Z,22.60
2018-02-17T12:10:48.021Z,22.70
2018-02-17T12:13:15.805Z,20.60
2018-02-17T12:15:43.634Z,21.83
2018-02-17T12:18:11.553Z,22.00
2018-02-17T12:20:39.484Z,24.53
2018-02-17T12:23:07.295Z,24.87
2018-02-17T12:25:35.110Z,22.90
2018-02-17T12:28:02.928Z,24.93
2018-02-17T12:30:30.742Z,27.20
2018-02-17T12:32:58.529Z,23.57
2018-02-17T12:35:26.453Z,25.70
2018-02-17T12:37:54.303Z,26.73
2018-02-17T12:40:22.090Z,26.40
2018-02-17T12:42:50.101Z,41.40
2018-02-17T12:45:18.818Z,27.33
2018-02-17T12:47:46.607Z,29.13
2018-02-17T12:50:14.434Z,26.50
2018-02-17T12:52:42.251Z,26.27
2018-02-17T12:55:10.039Z,27.73
2018-02-17T12:57:38.587Z,28.60
2018-02-17T13:00:06.368Z,29.37
2018-02-17T13:02:34.182Z,28.30
2018-02-17T13:05:01.967Z,28.13
2018-02-17T13:07:30.058Z,29.03
2018-02-17T13:09:57.878Z,29.07
2018-02-17T13:12:25.762Z,28.27
2018-02-17T13:14:53.558Z,26.33
2018-02-17T13:17:21.374Z,30.37
2018-02-17T13:19:49.203Z,30.98
2018-02-17T13:22:17.783Z,31.40
2018-02-17T13:24:45.628Z,28.20
2018-02-17T13:27:13.423Z,30.90
2018-02-17T13:29:42.046Z,31.17
2018-02-17T13:32:09.845Z,31.50
2018-02-17T13:34:37.670Z,28.67
2018-02-17T13:37:05.514Z,28.10
2018-02-17T13:39:33.350Z,26.67
2018-02-17T13:42:01.389Z,27.37
2018-02-17T13:44:29.195Z,29.27
2018-02-17T13:46:57.076Z,29.07
2018-02-17T13:49:25.849Z,30.17
2018-02-17T13:51:53.787Z,26.87
2018-02-17T13:54:21.586Z,27.00
2018-02-17T13:56:49.390Z,30.27
2018-02-17T13:59:17.565Z,29.50
2018-02-17T14:01:51.962Z,32.43
2018-02-17T14:04:20.649Z,28.70
2018-02-17T14:06:48.477Z,29.63
2018-02-17T14:09:16.255Z,28.70
2018-02-17T14:11:44.068Z,29.20
2018-02-17T14:14:14.439Z,29.00
2018-02-17T14:16:42.302Z,30.42
2018-02-17T14:19:10.102Z,28.70
2018-02-17T14:21:37.906Z,28.53
2018-02-17T14:24:05.695Z,31.67
2018-02-17T14:26:33.482Z,28.40
2018-02-17T14:29:02.042Z,31.20
2018-02-17T14:31:29.831Z,31.03
2018-02-17T14:33:59.046Z,28.70
2018-02-17T14:36:27.594Z,26.58
2018-02-17T14:38:55.386Z,28.57
2018-02-17T14:41:23.254Z,27.00
2018-02-17T14:43:51.069Z,27.50
2018-02-17T14:46:19.186Z,28.93
2018-02-17T14:48:47.957Z,29.20
2018-02-17T14:51:16.874Z,30.33
2018-02-17T14:53:45.462Z,28.80
2018-02-17T14:56:14.122Z,28.17
2018-02-17T14:58:42.710Z,28.33
2018-02-17T15:01:11.267Z,29.27
2018-02-17T15:03:39.066Z,31.60
2018-02-17T15:06:06.867Z,29.07
2018-02-17T15:08:34.728Z,30.27
2018-02-17T15:11:02.542Z,29.30
2018-02-17T15:13:31.088Z,31.83
2018-02-17T15:15:58.869Z,29.10
2018-02-17T15:18:26.669Z,30.77
2018-02-17T15:20:55.210Z,30.93
2018-02-17T15:23:23.003Z,28.80
2018-02-17T15:25:51.596Z,31.63
2018-02-17T15:28:20.165Z,30.17
2018-02-17T15:30:50.049Z,30.33
2018-02-17T15:33:17.845Z,30.80
2018-02-17T15:35:48.075Z,27.00
2018-02-17T15:38:16.698Z,32.10
2018-02-17T15:40:44.475Z,30.10
2018-02-17T15:43:12.254Z,30.90
2018-02-17T15:45:40.037Z,29.37
2018-02-17T15:48:07.833Z,31.70
2018-02-17T15:50:35.762Z,30.80
2018-02-17T15:53:03.716Z,29.47
2018-02-17T15:55:31.635Z,30.97
2018-02-17T15:57:59.436Z,30.50
2018-02-17T16:00:27.251Z,30.93
2018-02-17T16:02:57.548Z,32.70
2018-02-17T16:05:25.750Z,32.23
2018-02-17T16:17:24.250Z,29.87
2018-02-17T16:22:39.861Z,30.67
2018-02-17T16:25:07.774Z,31.17
2018-02-17T16:36:49.977Z,31.27
2018-02-17T16:39:17.791Z,30.53
2018-02-17T16:41:46.329Z,29.03
2018-02-17T16:44:14.180Z,28.97
2018-02-17T16:46:41.979Z,31.37
2018-02-17T16:49:11.179Z,31.60
2018-02-17T16:51:39.739Z,33.30
2018-02-17T16:54:07.507Z,34.30
2018-02-17T16:56:35.328Z,30.17
2018-02-17T16:59:03.112Z,28.83
2018-02-17T17:01:30.892Z,31.57
2018-02-17T17:03:58.859Z,31.67
2018-02-17T17:06:26.740Z,30.83
2018-02-17T17:08:54.626Z,30.83
2018-02-17T17:11:23.281Z,32.10
2018-02-17T17:13:51.175Z,26.87
2018-02-17T17:16:19.850Z,32.10
2018-02-17T17:18:47.651Z,33.50
2018-02-17T17:21:15.444Z,29.80
2018-02-17T17:23:43.532Z,31.10
2018-02-17T17:26:12.343Z,31.37
2018-02-17T17:28:40.246Z,30.50
2018-02-17T17:31:09.694Z,31.90
2018-02-17T17:33:37.578Z,30.10
2018-02-17T17:36:05.422Z,31.50
2018-02-17T17:38:33.338Z,32.73
2018-02-17T17:41:01.227Z,31.63
2018-02-17T17:43:29.057Z,33.40
2018-02-17T17:45:56.870Z,29.90
2018-02-17T17:48:24.995Z,31.30
2018-02-17T17:50:53.606Z,32.57
2018-02-17T17:53:21.776Z,31.77
2018-02-17T17:55:49.566Z,30.50
2018-02-17T17:58:17.472Z,29.37
2018-02-17T18:00:46.061Z,29.80
2018-02-17T18:03:13.902Z,31.27
2018-02-17T18:08:36.331Z,29.17
2018-02-17T18:19:39.004Z,30.67
2018-02-17T18:22:26.172Z,29.77
2018-02-17T18:30:26.979Z,30.30
2018-02-17T18:32:54.867Z,32.30
2018-02-17T18:35:23.202Z,32.17
2018-02-17T18:37:50.986Z,32.83
2018-02-17T18:40:18.811Z,31.00
2018-02-17T18:42:47.390Z,33.60
2018-02-17T18:45:15.874Z,33.70
2018-02-17T18:47:44.590Z,32.53
2018-02-17T18:50:12.599Z,31.30
2018-02-17T18:52:40.391Z,32.60
2018-02-17T18:55:08.168Z,30.80
2018-02-17T18:57:36.407Z,30.80
2018-02-17T19:00:05.241Z,32.30
2018-02-17T19:02:33.808Z,32.10
2018-02-17T19:05:02.042Z,32.15
2018-02-17T19:07:30.367Z,32.10
2018-02-17T19:09:59.618Z,33.00
2018-02-17T19:12:27.485Z,34.60
2018-02-17T19:14:55.320Z,36.00
2018-02-17T19:17:26.655Z,38.83
2018-02-17T19:19:54.442Z,35.70
2018-02-17T19:22:22.945Z,38.90
2018-02-17T19:24:51.503Z,41.43
2018-02-17T19:27:19.299Z,37.87
2018-02-17T19:29:47.171Z,41.90
2018-02-17T19:32:15.834Z,42.90
2018-02-17T19:34:43.622Z,45.80
2018-02-17T19:37:12.170Z,45.33
2018-02-17T19:39:39.959Z,45.00
2018-02-17T19:42:08.518Z,47.60
2018-02-17T19:44:38.175Z,43.33
2018-02-17T19:47:06.053Z,49.37
2018-02-17T19:49:33.863Z,43.97
2018-02-17T19:52:01.655Z,47.10
2018-02-17T19:58:41.850Z,46.10
2018-02-17T20:13:01.527Z,44.10
2018-02-17T20:15:47.559Z,43.40
2018-02-17T20:18:24.509Z,44.63
2018-02-17T20:20:52.816Z,43.53
2018-02-17T20:23:43.471Z,41.37
2018-02-17T20:29:16.303Z,45.50
2018-02-17T21:36:11.115Z,41.80
2018-02-17T21:38:51.507Z,44.67
2018-02-17T21:41:25.370Z,41.00
2018-02-17T21:44:02.160Z,43.93
2018-02-17T21:46:39.080Z,43.10
2018-02-17T21:52:21.110Z,45.70
2018-02-17T21:55:01.637Z,41.53
2018-02-17T21:57:36.738Z,42.30
2018-02-17T22:00:33.198Z,40.03
2018-02-17T22:29:45.409Z,39.03
2018-02-17T22:32:14.024Z,40.53
2018-02-17T22:34:42.804Z,41.40
2018-02-17T22:37:10.750Z,39.57
2018-02-17T22:39:40.868Z,41.87
2018-02-17T22:42:11.804Z,45.07
2018-02-17T22:44:40.456Z,44.73
2018-02-17T22:47:08.318Z,44.50
2018-02-17T22:49:36.367Z,47.10
2018-02-17T22:52:04.359Z,46.00
2018-02-17T22:54:34.220Z,44.00
2018-02-17T22:57:03.789Z,44.67
2018-02-17T23:00:12.607Z,45.23
2018-02-17T23:22:41.137Z,47.57
2018-02-17T23:57:00.377Z,41.63
